createdAt,value
2023-07-03T00:01:53.105Z,77.31
2023-07-03T00:04:24.861Z,76.74
2023-07-03T00:06:54.383Z,76.67
2023-07-03T00:09:24.794Z,76.37
2023-07-03T00:11:54.361Z,76.69
2023-07-03T00:14:23.476Z,76.41
2023-07-03T00:16:52.978Z,77.08
2023-07-03T00:19:26.808Z,77.28
2023-07-03T00:22:00.372Z,76.98
2023-07-03T00:24:32.604Z,76.49
2023-07-03T00:27:02.310Z,76.44
2023-07-03T00:29:33.698Z,76.10
2023-07-03T00:32:04.092Z,76.17
2023-07-03T00:34:33.088Z,76.63
2023-07-03T00:37:02.485Z,77.03
2023-07-03T00:39:32.996Z,77.62
2023-07-03T00:42:02.469Z,77.26
2023-07-03T00:44:31.673Z,77.82
2023-07-03T00:47:01.873Z,76.45
2023-07-03T00:49:32.048Z,76.75
2023-07-03T00:52:03.811Z,76.85
2023-07-03T00:54:34.165Z,77.03
2023-07-03T00:57:03.651Z,77.12
2023-07-03T00:59:34.756Z,78.66
2023-07-03T01:02:11.171Z,77.52
2023-07-03T01:04:48.096Z,76.93
2023-07-03T01:07:22.397Z,76.97
2023-07-03T01:09:57.146Z,76.87
2023-07-03T01:12:30.574Z,77.01
2023-07-03T01:15:03.092Z,77.94
2023-07-03T01:17:34.313Z,78.18
2023-07-03T01:20:05.836Z,78.07
2023-07-03T01:22:43.802Z,77.96
2023-07-03T01:25:21.120Z,78.54
2023-07-03T01:27:54.146Z,78.73
2023-07-03T01:30:25.310Z,78.32
2023-07-03T01:32:56.222Z,79.02
2023-07-03T01:35:28.114Z,79.10
2023-07-03T01:38:01.812Z,77.72
2023-07-03T01:40:33.501Z,78.42
2023-07-03T01:43:03.764Z,78.25
2023-07-03T01:45:36.710Z,77.48
2023-07-03T01:48:06.657Z,77.67
2023-07-03T01:50:35.832Z,78.31
2023-07-03T01:53:12.099Z,78.98
2023-07-03T01:55:50.445Z,77.57
2023-07-03T01:58:33.689Z,79.14
2023-07-03T02:01:06.582Z,77.97
2023-07-03T02:03:45.958Z,78.08
2023-07-03T02:06:21.583Z,77.81
2023-07-03T02:08:53.972Z,78.70
2023-07-03T02:11:29.456Z,77.98
2023-07-03T02:13:59.890Z,77.69
2023-07-03T02:16:32.393Z,77.78
2023-07-03T02:19:02.208Z,77.55
2023-07-03T02:21:31.512Z,77.76
2023-07-03T02:24:00.922Z,78.45
2023-07-03T02:26:31.542Z,77.89
2023-07-03T02:29:00.942Z,77.91
2023-07-03T02:31:30.200Z,78.21
2023-07-03T02:33:59.707Z,79.13
2023-07-03T02:36:30.917Z,78.41
2023-07-03T02:39:00.512Z,78.55
2023-07-03T02:41:31.212Z,78.73
2023-07-03T02:44:00.753Z,79.15
2023-07-03T02:46:32.712Z,78.45
2023-07-03T02:49:02.293Z,77.99
2023-07-03T02:51:32.115Z,78.37
2023-07-03T02:54:06.126Z,78.42
2023-07-03T02:56:37.760Z,78.70
2023-07-03T02:59:07.315Z,78.50
2023-07-03T03:01:38.943Z,78.64
2023-07-03T03:04:09.942Z,78.21
2023-07-03T03:06:40.045Z,79.32
2023-07-03T03:09:10.617Z,79.00
2023-07-03T03:11:41.858Z,79.36
2023-07-03T03:14:14.440Z,78.85
2023-07-03T03:16:43.586Z,78.63
2023-07-03T03:19:13.110Z,79.00
2023-07-03T03:21:42.330Z,78.50
2023-07-03T03:24:11.829Z,78.54
2023-07-03T03:26:42.397Z,78.50
2023-07-03T03:29:11.840Z,78.13
2023-07-03T03:31:42.218Z,78.40
2023-07-03T03:34:13.740Z,78.49
2023-07-03T03:36:43.014Z,77.93
2023-07-03T03:39:13.067Z,77.62
2023-07-03T03:41:44.223Z,77.66
2023-07-03T03:44:14.857Z,77.17
2023-07-03T03:46:44.025Z,77.54
2023-07-03T03:49:13.470Z,76.90
2023-07-03T03:51:42.862Z,78.08
2023-07-03T03:54:15.663Z,77.26
2023-07-03T03:56:46.214Z,77.04
2023-07-03T03:59:15.860Z,76.91
2023-07-03T04:01:45.074Z,76.81
2023-07-03T04:04:15.174Z,76.57
2023-07-03T04:06:44.625Z,76.56
2023-07-03T04:09:14.122Z,76.56
2023-07-03T04:11:43.346Z,76.16
2023-07-03T04:14:16.316Z,76.04
2023-07-03T04:16:47.954Z,75.78
2023-07-03T04:19:19.722Z,75.67
2023-07-03T04:21:48.906Z,75.29
2023-07-03T04:24:18.315Z,74.19
2023-07-03T04:26:47.459Z,75.32
2023-07-03T04:29:18.302Z,74.40
2023-07-03T04:31:47.489Z,74.37
2023-07-03T04:34:16.881Z,74.83
2023-07-03T04:36:49.137Z,74.68
2023-07-03T04:39:18.684Z,74.85
2023-07-03T04:41:47.816Z,73.80
2023-07-03T04:44:18.747Z,73.99
2023-07-03T04:46:48.077Z,73.35
2023-07-03T04:49:17.484Z,73.69
2023-07-03T04:51:46.592Z,73.01
2023-07-03T04:54:15.961Z,72.33
2023-07-03T04:56:46.109Z,72.35
2023-07-03T04:59:17.046Z,72.10
2023-07-03T05:01:46.374Z,71.87
2023-07-03T05:04:16.022Z,71.85
2023-07-03T05:06:46.033Z,71.53
2023-07-03T05:09:15.529Z,71.69
2023-07-03T05:11:44.653Z,70.41
2023-07-03T05:14:14.077Z,70.32
2023-07-03T05:16:44.677Z,69.77
2023-07-03T05:19:14.598Z,68.45
2023-07-03T05:21:43.996Z,68.88
2023-07-03T05:24:13.355Z,68.05
2023-07-03T05:26:42.509Z,67.14
2023-07-03T05:29:11.887Z,65.94
2023-07-03T05:31:41.119Z,66.03
2023-07-03T05:34:12.086Z,65.43
2023-07-03T05:36:41.295Z,64.64
2023-07-03T05:39:10.711Z,64.37
2023-07-03T05:41:39.996Z,64.66
2023-07-03T05:44:09.386Z,63.44
2023-07-03T05:46:38.517Z,62.60
2023-07-03T05:49:07.960Z,63.40
2023-07-03T05:51:38.420Z,62.82
2023-07-03T05:54:07.973Z,63.52
2023-07-03T05:56:37.152Z,62.64
2023-07-03T05:59:06.549Z,62.76
2023-07-03T06:01:35.795Z,63.12
2023-07-03T06:04:05.443Z,61.78
2023-07-03T06:06:35.606Z,60.78
2023-07-03T06:09:06.506Z,60.21
2023-07-03T06:11:35.768Z,59.31
2023-07-03T06:14:05.155Z,59.72
2023-07-03T06:16:35.673Z,59.45
2023-07-03T06:19:05.124Z,58.94
2023-07-03T06:21:34.269Z,59.09
2023-07-03T06:24:05.226Z,59.14
2023-07-03T06:26:35.052Z,58.37
2023-07-03T06:29:04.722Z,57.46
2023-07-03T06:31:34.203Z,57.89
2023-07-03T06:34:04.565Z,57.24
2023-07-03T06:36:36.157Z,55.61
2023-07-03T06:39:09.377Z,55.74
2023-07-03T06:41:38.977Z,54.64
2023-07-03T06:44:13.077Z,54.71
2023-07-03T06:46:42.400Z,55.69
2023-07-03T06:49:12.278Z,54.68
2023-07-03T06:51:41.599Z,54.35
2023-07-03T06:54:12.558Z,53.74
2023-07-03T06:56:41.668Z,54.73
2023-07-03T06:59:11.284Z,53.20
2023-07-03T07:01:41.743Z,53.77
2023-07-03T07:04:11.559Z,52.91
2023-07-03T07:06:42.099Z,52.98
2023-07-03T07:09:12.875Z,50.92
2023-07-03T07:11:42.021Z,51.60
2023-07-03T07:14:11.570Z,51.45
2023-07-03T07:16:41.649Z,50.46
2023-07-03T07:19:12.742Z,50.85
2023-07-03T07:21:43.522Z,50.71
2023-07-03T07:24:19.233Z,49.84
2023-07-03T07:26:49.426Z,49.48
2023-07-03T07:29:18.859Z,50.39
2023-07-03T07:31:47.787Z,49.94
2023-07-03T07:34:17.000Z,50.07
2023-07-03T07:36:45.980Z,49.13
2023-07-03T07:39:16.738Z,47.93
2023-07-03T07:41:46.641Z,47.76
2023-07-03T07:44:15.791Z,46.83
2023-07-03T07:46:44.856Z,49.00
2023-07-03T07:49:14.068Z,47.64
2023-07-03T07:51:43.389Z,45.95
2023-07-03T07:54:12.595Z,45.42
2023-07-03T07:56:42.956Z,45.43
2023-07-03T07:59:12.161Z,45.58
2023-07-03T08:01:41.114Z,46.15
2023-07-03T08:04:10.462Z,44.85
2023-07-03T08:06:39.955Z,44.12
2023-07-03T08:09:09.467Z,45.45
2023-07-03T08:11:39.195Z,43.90
2023-07-03T08:14:09.817Z,43.93
2023-07-03T08:16:38.929Z,43.42
2023-07-03T08:19:08.192Z,42.88
2023-07-03T08:21:37.138Z,43.66
2023-07-03T08:24:07.989Z,43.44
2023-07-03T08:26:38.691Z,43.39
2023-07-03T08:29:09.295Z,43.08
2023-07-03T08:31:38.380Z,43.13
2023-07-03T08:34:08.588Z,43.82
2023-07-03T08:39:10.321Z,42.71
2023-07-03T08:41:45.326Z,42.90
2023-07-03T08:44:16.383Z,42.77
2023-07-03T08:46:55.539Z,41.98
2023-07-03T08:49:35.591Z,40.14
2023-07-03T08:52:05.171Z,40.55
2023-07-03T08:54:38.195Z,42.15
2023-07-03T08:57:08.269Z,41.78
2023-07-03T08:59:39.522Z,41.35
2023-07-03T09:02:21.600Z,42.52
2023-07-03T09:05:03.606Z,42.21
2023-07-03T09:07:39.331Z,42.31
2023-07-03T09:10:17.427Z,43.31
2023-07-03T09:12:53.065Z,44.57
2023-07-03T09:15:29.725Z,44.26
2023-07-03T09:18:01.662Z,43.61
2023-07-03T09:20:32.403Z,44.03
2023-07-03T09:23:07.012Z,43.08
2023-07-03T09:25:42.331Z,43.89
2023-07-03T09:28:12.366Z,44.69
2023-07-03T09:30:43.390Z,44.55
2023-07-03T09:33:12.425Z,43.86
2023-07-03T09:35:43.887Z,44.49
2023-07-03T09:38:16.506Z,44.19
2023-07-03T09:40:47.940Z,44.19
2023-07-03T09:43:21.167Z,44.01
2023-07-03T09:45:53.879Z,44.55
2023-07-03T09:48:27.339Z,44.21
2023-07-03T09:51:07.289Z,44.33
2023-07-03T09:53:43.055Z,43.54
2023-07-03T09:56:17.676Z,44.17
2023-07-03T09:58:50.076Z,43.26
2023-07-03T10:06:41.633Z,43.69
2023-07-03T10:12:03.632Z,43.90
2023-07-03T10:14:39.623Z,44.23
2023-07-03T10:17:14.375Z,44.50
2023-07-03T10:19:48.168Z,44.51
2023-07-03T10:22:19.467Z,44.14
2023-07-03T10:24:50.172Z,44.27
2023-07-03T10:27:22.387Z,43.76
2023-07-03T10:29:55.276Z,44.48
2023-07-03T10:32:29.503Z,44.77
2023-07-03T10:35:04.480Z,44.42
2023-07-03T10:37:41.250Z,44.66
2023-07-03T10:40:18.648Z,43.35
2023-07-03T10:42:52.978Z,44.08
2023-07-03T10:45:23.282Z,43.78
2023-07-03T10:47:58.287Z,43.11
2023-07-03T10:50:34.904Z,43.87
2023-07-03T10:53:12.781Z,41.95
2023-07-03T10:55:46.540Z,42.92
2023-07-03T10:58:22.473Z,42.82
2023-07-03T11:00:59.274Z,43.43
2023-07-03T11:03:41.275Z,42.10
2023-07-03T11:06:20.728Z,42.49
2023-07-03T11:08:56.882Z,43.06
2023-07-03T11:11:39.440Z,42.04
2023-07-03T11:14:16.234Z,42.10
2023-07-03T11:16:55.350Z,41.24
2023-07-03T11:24:53.712Z,41.28
2023-07-03T11:30:05.110Z,42.18
2023-07-03T11:32:35.913Z,42.32
2023-07-03T11:40:36.196Z,42.82
2023-07-03T11:43:31.011Z,42.40
2023-07-03T11:46:10.531Z,41.96
2023-07-03T11:48:51.654Z,42.23
2023-07-03T11:51:36.145Z,42.45
2023-07-03T11:54:19.792Z,43.58
2023-07-03T11:56:51.911Z,43.21
2023-07-03T11:59:34.553Z,43.01
2023-07-03T12:02:49.328Z,42.77
2023-07-03T12:05:54.436Z,43.82
2023-07-03T12:08:47.833Z,42.98
2023-07-03T12:11:17.840Z,43.51
2023-07-03T12:13:52.931Z,42.98
2023-07-03T12:16:25.983Z,43.88
2023-07-03T12:19:04.231Z,43.56
2023-07-03T12:21:40.768Z,43.68
2023-07-03T12:24:24.093Z,43.55
2023-07-03T12:26:59.170Z,43.71
2023-07-03T12:29:29.127Z,44.29
2023-07-03T12:32:06.547Z,43.68
2023-07-03T12:34:38.459Z,44.58
2023-07-03T12:37:10.583Z,44.98
2023-07-03T12:39:44.754Z,45.19
2023-07-03T12:42:17.011Z,45.49
2023-07-03T12:44:49.366Z,46.00
2023-07-03T12:47:24.106Z,45.84
2023-07-03T12:50:00.401Z,45.92
2023-07-03T12:52:32.224Z,46.20
2023-07-03T12:55:14.426Z,45.71
2023-07-03T12:57:46.079Z,46.04
2023-07-03T13:00:26.655Z,45.75
2023-07-03T13:02:59.975Z,45.36
2023-07-03T13:05:32.929Z,42.77
2023-07-03T13:08:04.330Z,43.69
2023-07-03T13:10:36.329Z,44.35
2023-07-03T13:13:10.625Z,44.28
2023-07-03T13:15:43.440Z,43.81
2023-07-03T13:18:21.452Z,44.26
2023-07-03T13:20:59.070Z,44.29
2023-07-03T13:23:34.422Z,44.50
2023-07-03T13:26:11.228Z,44.23
2023-07-03T13:28:55.047Z,44.15
2023-07-03T13:31:32.001Z,44.28
2023-07-03T13:34:14.387Z,43.94
2023-07-03T13:36:47.080Z,43.64
2023-07-03T13:39:28.660Z,42.85
2023-07-03T13:42:01.946Z,42.42
2023-07-03T13:44:31.969Z,40.84
2023-07-03T13:47:01.491Z,42.31
2023-07-03T13:49:31.859Z,41.08
2023-07-03T13:52:02.374Z,41.85
2023-07-03T13:54:34.160Z,41.40
2023-07-03T13:57:06.704Z,41.09
2023-07-03T13:59:36.359Z,40.41
2023-07-03T14:02:05.757Z,41.33
2023-07-03T14:04:35.521Z,39.67
2023-07-03T14:07:05.601Z,39.77
2023-07-03T14:09:34.934Z,39.46
2023-07-03T14:12:06.332Z,38.30
2023-07-03T14:14:36.426Z,38.41
2023-07-03T14:17:09.420Z,39.24
2023-07-03T14:19:39.164Z,38.54
2023-07-03T14:22:11.115Z,39.03
2023-07-03T14:24:41.740Z,40.35
2023-07-03T14:27:13.321Z,39.17
2023-07-03T14:29:42.577Z,38.59
2023-07-03T14:32:12.547Z,38.85
2023-07-03T14:34:43.807Z,40.32
2023-07-03T14:37:21.271Z,39.86
2023-07-03T14:39:58.736Z,40.38
2023-07-03T14:42:33.889Z,40.24
2023-07-03T14:45:04.262Z,39.69
2023-07-03T14:47:35.083Z,39.62
2023-07-03T14:50:04.840Z,38.58
2023-07-03T14:52:38.446Z,38.19
2023-07-03T14:55:08.666Z,39.21
2023-07-03T14:57:39.983Z,39.25
2023-07-03T15:00:10.536Z,39.47
2023-07-03T15:02:41.083Z,39.04
2023-07-03T15:05:11.890Z,38.29
2023-07-03T15:07:42.223Z,38.90
2023-07-03T15:10:13.054Z,39.03
2023-07-03T15:12:47.165Z,38.62
2023-07-03T15:15:16.701Z,37.94
2023-07-03T15:17:47.983Z,38.01
2023-07-03T15:20:18.134Z,37.79
2023-07-03T15:22:52.344Z,37.93
2023-07-03T15:25:22.372Z,38.22
2023-07-03T15:27:54.242Z,39.09
2023-07-03T15:30:27.378Z,38.23
2023-07-03T15:33:00.525Z,37.81
2023-07-03T15:35:29.927Z,37.68
2023-07-03T15:37:59.390Z,37.97
2023-07-03T15:40:28.616Z,38.21
2023-07-03T15:42:59.578Z,38.28
2023-07-03T15:45:28.809Z,38.56
2023-07-03T15:47:58.401Z,37.72
2023-07-03T15:50:30.351Z,38.24
2023-07-03T15:53:00.858Z,38.50
2023-07-03T15:55:30.854Z,38.18
2023-07-03T15:58:02.084Z,39.38
2023-07-03T16:00:31.687Z,39.00
2023-07-03T16:03:01.501Z,38.84
2023-07-03T16:05:30.836Z,39.19
2023-07-03T16:08:00.434Z,39.25
2023-07-03T16:10:29.891Z,39.79
2023-07-03T16:13:00.904Z,40.91
2023-07-03T16:15:33.640Z,41.11
2023-07-03T16:18:03.535Z,41.21
2023-07-03T16:20:32.887Z,40.45
2023-07-03T16:23:02.566Z,39.24
2023-07-03T16:25:32.017Z,38.07
2023-07-03T16:28:03.191Z,38.43
2023-07-03T16:30:32.482Z,38.60
2023-07-03T16:33:02.059Z,37.68
2023-07-03T16:35:31.450Z,37.11
2023-07-03T16:38:03.956Z,37.70
2023-07-03T16:40:33.276Z,38.35
2023-07-03T16:43:04.191Z,38.55
2023-07-03T16:45:34.162Z,37.86
2023-07-03T16:48:03.930Z,38.48
2023-07-03T16:50:33.259Z,38.49
2023-07-03T16:53:02.733Z,38.84
2023-07-03T16:55:32.324Z,39.06
2023-07-03T16:58:03.519Z,38.76
2023-07-03T17:00:32.759Z,39.71
2023-07-03T17:03:02.443Z,38.68
2023-07-03T17:05:31.910Z,38.71
2023-07-03T17:08:01.374Z,39.95
2023-07-03T17:10:30.589Z,39.93
2023-07-03T17:13:00.172Z,40.34
2023-07-03T17:15:32.397Z,40.54
2023-07-03T17:18:03.809Z,40.79
2023-07-03T17:20:35.609Z,41.36
2023-07-03T17:23:07.616Z,40.76
2023-07-03T17:25:39.345Z,40.97
2023-07-03T17:28:10.868Z,41.02
2023-07-03T17:30:43.293Z,41.85
2023-07-03T17:33:14.187Z,42.18
2023-07-03T17:35:46.184Z,43.19
2023-07-03T17:38:16.990Z,42.18
2023-07-03T17:40:48.457Z,42.45
2023-07-03T17:43:23.731Z,42.28
2023-07-03T17:45:55.685Z,41.55
2023-07-03T17:48:25.765Z,41.88
2023-07-03T17:50:54.997Z,41.53
2023-07-03T17:53:24.742Z,41.88
2023-07-03T17:55:54.875Z,42.21
2023-07-03T17:58:24.619Z,42.71
2023-07-03T18:01:02.302Z,42.81
2023-07-03T18:03:34.382Z,43.08
2023-07-03T18:06:03.968Z,48.10
2023-07-03T18:08:33.743Z,45.95
2023-07-03T18:11:02.879Z,44.88
2023-07-03T18:13:32.969Z,44.92
2023-07-03T18:16:04.525Z,45.85
2023-07-03T18:18:34.804Z,45.26
2023-07-03T18:21:04.067Z,45.58
2023-07-03T18:23:33.629Z,45.43
2023-07-03T18:26:02.931Z,46.58
2023-07-03T18:28:32.704Z,46.72
2023-07-03T18:31:04.466Z,50.70
2023-07-03T18:33:35.333Z,47.11
2023-07-03T18:36:05.249Z,46.54
2023-07-03T18:38:35.568Z,46.69
2023-07-03T18:41:06.391Z,46.94
2023-07-03T18:43:35.923Z,46.95
2023-07-03T18:46:08.499Z,46.93
2023-07-03T18:48:40.726Z,46.95
2023-07-03T18:51:15.115Z,47.54
2023-07-03T18:53:45.251Z,47.25
2023-07-03T18:56:14.620Z,47.54
2023-07-03T18:58:46.208Z,48.00
2023-07-03T19:01:19.616Z,47.79
2023-07-03T19:03:49.731Z,50.40
2023-07-03T19:06:22.849Z,56.41
2023-07-03T19:08:54.870Z,51.29
2023-07-03T19:11:24.323Z,53.48
2023-07-03T19:13:53.795Z,57.24
2023-07-03T19:16:24.841Z,51.82
2023-07-03T19:18:57.019Z,56.36
2023-07-03T19:21:27.373Z,51.49
2023-07-03T19:23:59.411Z,56.46
2023-07-03T19:26:30.814Z,53.51
2023-07-03T19:29:00.649Z,57.61
2023-07-03T19:31:31.535Z,56.44
2023-07-03T19:34:03.346Z,61.02
2023-07-03T19:36:32.768Z,61.42
2023-07-03T19:39:02.446Z,60.51
2023-07-03T19:41:31.829Z,58.94
2023-07-03T19:44:01.053Z,60.82
2023-07-03T19:46:32.820Z,59.49
2023-07-03T19:49:03.896Z,60.82
2023-07-03T19:51:34.000Z,60.52
2023-07-03T19:54:03.698Z,59.20
2023-07-03T19:56:33.605Z,61.67
2023-07-03T19:59:02.929Z,59.56
2023-07-03T20:01:34.704Z,60.37
2023-07-03T20:04:04.582Z,58.28
2023-07-03T20:06:34.188Z,57.40
2023-07-03T20:09:03.514Z,56.72
2023-07-03T20:11:34.723Z,55.70
2023-07-03T20:14:04.475Z,55.34
2023-07-03T20:16:37.164Z,55.10
2023-07-03T20:19:06.502Z,57.17
2023-07-03T20:21:35.997Z,56.04
2023-07-03T20:24:05.321Z,56.41
2023-07-03T20:26:34.958Z,56.90
2023-07-03T20:29:04.338Z,57.19
2023-07-03T20:31:35.274Z,59.36
2023-07-03T20:34:05.074Z,57.72
2023-07-03T20:36:35.619Z,58.08
2023-07-03T20:39:06.106Z,58.39
2023-07-03T20:41:35.848Z,58.99
2023-07-03T20:44:06.078Z,59.46
2023-07-03T20:46:37.060Z,60.15
2023-07-03T20:49:06.794Z,60.18
2023-07-03T20:51:36.685Z,60.24
2023-07-03T20:54:12.458Z,60.44
2023-07-03T20:56:43.177Z,60.94
2023-07-03T20:59:12.425Z,61.27
2023-07-03T21:01:44.199Z,61.61
2023-07-03T21:04:13.574Z,62.25
2023-07-03T21:06:43.747Z,63.52
2023-07-03T21:09:12.960Z,63.91
2023-07-03T21:11:44.257Z,63.82
2023-07-03T21:14:14.982Z,64.04
2023-07-03T21:16:46.562Z,64.84
2023-07-03T21:19:16.342Z,64.73
2023-07-03T21:21:46.283Z,64.56
2023-07-03T21:24:15.552Z,64.87
2023-07-03T21:26:45.026Z,64.53
2023-07-03T21:29:14.302Z,64.58
2023-07-03T21:31:45.212Z,65.11
2023-07-03T21:34:14.501Z,65.14
2023-07-03T21:36:44.102Z,65.81
2023-07-03T21:39:14.019Z,66.99
2023-07-03T21:41:43.789Z,67.09
2023-07-03T21:44:14.703Z,66.62
2023-07-03T21:46:46.437Z,66.27
2023-07-03T21:49:17.223Z,66.19
2023-07-03T21:51:46.881Z,65.87
2023-07-03T21:54:16.078Z,65.13
2023-07-03T21:56:45.668Z,65.49
2023-07-03T21:59:14.880Z,66.00
2023-07-03T22:01:51.531Z,65.40
2023-07-03T22:04:20.869Z,65.57
2023-07-03T22:06:50.379Z,67.48
2023-07-03T22:09:32.597Z,70.45
2023-07-03T22:12:07.720Z,69.43
2023-07-03T22:14:37.274Z,70.81
2023-07-03T22:17:08.578Z,71.28
2023-07-03T22:19:40.096Z,70.01
2023-07-03T22:22:10.588Z,70.18
2023-07-03T22:24:39.958Z,71.84
2023-07-03T22:27:09.517Z,73.03
2023-07-03T22:29:38.925Z,73.50
2023-07-03T22:32:11.469Z,73.86
2023-07-03T22:34:40.702Z,74.23
2023-07-03T22:37:10.180Z,74.23
2023-07-03T22:39:39.467Z,74.13
2023-07-03T22:42:09.619Z,74.41
2023-07-03T22:44:38.867Z,75.08
2023-07-03T22:47:10.158Z,75.10
2023-07-03T22:49:40.190Z,74.88
2023-07-03T22:52:11.283Z,75.45
2023-07-03T22:54:41.169Z,75.71
2023-07-03T22:57:10.381Z,76.00
2023-07-03T22:59:39.581Z,75.87
2023-07-03T23:02:10.466Z,74.90
2023-07-03T23:04:39.941Z,75.62
2023-07-03T23:07:09.559Z,76.02
2023-07-03T23:09:39.055Z,75.78
2023-07-03T23:12:09.735Z,76.86
2023-07-03T23:14:39.717Z,74.19
2023-07-03T23:17:11.695Z,75.03
2023-07-03T23:19:41.056Z,73.72
2023-07-03T23:22:10.521Z,73.99
2023-07-03T23:24:39.759Z,72.45
2023-07-03T23:27:09.407Z,73.63
2023-07-03T23:29:38.668Z,75.02
2023-07-03T23:32:10.456Z,73.07
2023-07-03T23:34:39.733Z,74.66
2023-07-03T23:37:10.161Z,75.07
2023-07-03T23:39:39.204Z,74.17
2023-07-03T23:42:09.836Z,73.64
2023-07-03T23:44:39.691Z,72.68
2023-07-03T23:47:10.815Z,72.50
2023-07-03T23:49:40.886Z,72.73
2023-07-03T23:52:10.748Z,73.33
2023-07-03T23:54:41.368Z,72.70
2023-07-03T23:57:12.167Z,72.76
2023-07-03T23:59:41.414Z,72.64
